sensor_id;sensor_type;location;lat;lon;timestamp;pressure;altitude;pressure_sealevel;temperature;humidity
76594;BME280;65482;50.240;14.302;2023-12-22T00:00:23;97219.72;;;4.61;63.12
76594;BME280;65482;50.240;14.302;2023-12-22T00:03:08;97218.00;;;4.68;62.54
76594;BME280;65482;50.240;14.302;2023-12-22T00:05:34;97220.09;;;4.72;62.13
76594;BME280;65482;50.240;14.302;2023-12-22T00:07:59;97219.00;;;4.82;61.24
76594;BME280;65482;50.240;14.302;2023-12-22T00:10:25;97215.84;;;4.86;61.64
76594;BME280;65482;50.240;14.302;2023-12-22T00:12:50;97208.00;;;4.86;60.97
76594;BME280;65482;50.240;14.302;2023-12-22T00:15:16;97214.84;;;4.87;61.62
76594;BME280;65482;50.240;14.302;2023-12-22T00:17:41;97216.31;;;4.90;61.24
76594;BME280;65482;50.240;14.302;2023-12-22T00:20:07;97206.03;;;4.88;60.73
76594;BME280;65482;50.240;14.302;2023-12-22T00:22:34;97209.44;;;4.89;61.08
76594;BME280;65482;50.240;14.302;2023-12-22T00:25:00;97226.94;;;4.88;60.40
76594;BME280;65482;50.240;14.302;2023-12-22T00:27:26;97224.75;;;4.77;60.90
76594;BME280;65482;50.240;14.302;2023-12-22T00:29:52;97223.88;;;4.70;59.84
76594;BME280;65482;50.240;14.302;2023-12-22T00:32:18;97239.34;;;4.71;60.58
76594;BME280;65482;50.240;14.302;2023-12-22T00:34:44;97238.53;;;4.71;60.30
76594;BME280;65482;50.240;14.302;2023-12-22T00:37:09;97228.63;;;4.66;60.55
76594;BME280;65482;50.240;14.302;2023-12-22T00:39:35;97224.13;;;4.60;60.61
76594;BME280;65482;50.240;14.302;2023-12-22T00:42:00;97231.22;;;4.51;61.01
76594;BME280;65482;50.240;14.302;2023-12-22T00:44:26;97230.88;;;4.54;61.34
76594;BME280;65482;50.240;14.302;2023-12-22T00:46:54;97243.47;;;4.51;60.77
76594;BME280;65482;50.240;14.302;2023-12-22T00:49:19;97247.50;;;4.53;60.80
76594;BME280;65482;50.240;14.302;2023-12-22T00:51:46;97244.38;;;4.58;60.47
76594;BME280;65482;50.240;14.302;2023-12-22T00:54:12;97243.38;;;4.59;60.53
76594;BME280;65482;50.240;14.302;2023-12-22T00:56:38;97252.13;;;4.66;60.21
76594;BME280;65482;50.240;14.302;2023-12-22T00:59:03;97237.72;;;4.70;60.32
76594;BME280;65482;50.240;14.302;2023-12-22T01:01:29;97257.19;;;4.68;59.48
76594;BME280;65482;50.240;14.302;2023-12-22T01:03:54;97256.28;;;4.75;59.62
76594;BME280;65482;50.240;14.302;2023-12-22T01:06:20;97256.28;;;4.75;59.68
76594;BME280;65482;50.240;14.302;2023-12-22T01:08:45;97266.53;;;4.77;59.41
76594;BME280;65482;50.240;14.302;2023-12-22T01:11:16;97269.28;;;4.84;58.99
76594;BME280;65482;50.240;14.302;2023-12-22T01:13:42;97276.41;;;4.90;58.80
76594;BME280;65482;50.240;14.302;2023-12-22T01:16:08;97279.81;;;4.90;58.86
76594;BME280;65482;50.240;14.302;2023-12-22T01:18:34;97284.69;;;4.93;58.45
76594;BME280;65482;50.240;14.302;2023-12-22T01:20:59;97280.34;;;4.86;59.20
76594;BME280;65482;50.240;14.302;2023-12-22T01:23:25;97282.34;;;4.84;59.01
76594;BME280;65482;50.240;14.302;2023-12-22T01:25:51;97299.88;;;4.75;59.53
76594;BME280;65482;50.240;14.302;2023-12-22T01:28:16;97284.38;;;4.73;58.71
76594;BME280;65482;50.240;14.302;2023-12-22T01:30:42;97288.41;;;4.61;59.41
76594;BME280;65482;50.240;14.302;2023-12-22T01:33:07;97279.13;;;4.58;58.64
76594;BME280;65482;50.240;14.302;2023-12-22T01:35:33;97278.50;;;4.56;59.48
76594;BME280;65482;50.240;14.302;2023-12-22T01:37:59;97284.91;;;4.54;59.59
76594;BME280;65482;50.240;14.302;2023-12-22T01:40:24;97279.66;;;4.54;58.76
76594;BME280;65482;50.240;14.302;2023-12-22T01:42:50;97285.31;;;4.57;58.56
76594;BME280;65482;50.240;14.302;2023-12-22T01:45:16;97274.25;;;4.55;58.51
76594;BME280;65482;50.240;14.302;2023-12-22T01:47:42;97290.56;;;4.57;58.11
76594;BME280;65482;50.240;14.302;2023-12-22T01:50:09;97276.19;;;4.62;57.77
76594;BME280;65482;50.240;14.302;2023-12-22T01:52:41;97280.09;;;4.57;57.54
76594;BME280;65482;50.240;14.302;2023-12-22T01:55:09;97295.44;;;4.61;57.75
76594;BME280;65482;50.240;14.302;2023-12-22T01:57:36;97293.13;;;4.66;57.53
76594;BME280;65482;50.240;14.302;2023-12-22T02:00:02;97298.13;;;4.67;56.70
76594;BME280;65482;50.240;14.302;2023-12-22T02:02:30;97294.56;;;4.68;56.55
76594;BME280;65482;50.240;14.302;2023-12-22T02:04:57;97287.19;;;4.72;56.81
76594;BME280;65482;50.240;14.302;2023-12-22T02:07:23;97293.03;;;4.74;56.52
76594;BME280;65482;50.240;14.302;2023-12-22T02:09:48;97286.72;;;4.68;56.93
76594;BME280;65482;50.240;14.302;2023-12-22T02:12:14;97285.91;;;4.68;56.76
76594;BME280;65482;50.240;14.302;2023-12-22T02:14:40;97278.06;;;4.68;56.73
76594;BME280;65482;50.240;14.302;2023-12-22T02:17:14;97269.97;;;4.63;55.98
76594;BME280;65482;50.240;14.302;2023-12-22T02:19:45;97271.63;;;4.55;56.66
76594;BME280;65482;50.240;14.302;2023-12-22T02:22:12;97270.56;;;4.50;56.54
76594;BME280;65482;50.240;14.302;2023-12-22T02:24:39;97263.06;;;4.47;56.76
76594;BME280;65482;50.240;14.302;2023-12-22T02:27:06;97280.16;;;4.34;56.47
76594;BME280;65482;50.240;14.302;2023-12-22T02:29:42;97278.25;;;4.28;57.10
76594;BME280;65482;50.240;14.302;2023-12-22T02:32:14;97284.97;;;4.23;57.57
76594;BME280;65482;50.240;14.302;2023-12-22T02:34:43;97278.13;;;4.22;57.01
76594;BME280;65482;50.240;14.302;2023-12-22T02:37:10;97283.22;;;4.15;57.09
76594;BME280;65482;50.240;14.302;2023-12-22T02:39:36;97277.44;;;4.05;56.95
76594;BME280;65482;50.240;14.302;2023-12-22T02:42:04;97276.50;;;3.97;57.06
76594;BME280;65482;50.240;14.302;2023-12-22T02:44:31;97272.50;;;3.87;57.67
76594;BME280;65482;50.240;14.302;2023-12-22T02:46:57;97263.19;;;3.92;57.03
76594;BME280;65482;50.240;14.302;2023-12-22T02:49:22;97260.97;;;3.81;58.11
76594;BME280;65482;50.240;14.302;2023-12-22T02:51:48;97266.06;;;3.74;58.17
76594;BME280;65482;50.240;14.302;2023-12-22T02:54:13;97270.97;;;3.69;58.05
76594;BME280;65482;50.240;14.302;2023-12-22T02:56:39;97277.69;;;3.64;58.19
76594;BME280;65482;50.240;14.302;2023-12-22T02:59:05;97275.75;;;3.57;58.30
76594;BME280;65482;50.240;14.302;2023-12-22T03:01:30;97276.56;;;3.58;58.27
76594;BME280;65482;50.240;14.302;2023-12-22T03:03:56;97283.75;;;3.56;58.04
76594;BME280;65482;50.240;14.302;2023-12-22T03:06:22;97281.50;;;3.53;58.46
76594;BME280;65482;50.240;14.302;2023-12-22T03:08:47;97282.47;;;3.52;58.51
76594;BME280;65482;50.240;14.302;2023-12-22T03:11:13;97284.25;;;3.51;58.48
76594;BME280;65482;50.240;14.302;2023-12-22T03:13:38;97278.56;;;3.48;59.03
76594;BME280;65482;50.240;14.302;2023-12-22T03:16:08;97294.56;;;3.45;58.82
76594;BME280;65482;50.240;14.302;2023-12-22T03:18:34;97289.03;;;3.39;59.05
76594;BME280;65482;50.240;14.302;2023-12-22T03:20:59;97286.13;;;3.34;58.90
76594;BME280;65482;50.240;14.302;2023-12-22T03:23:25;97287.31;;;3.24;59.26
76594;BME280;65482;50.240;14.302;2023-12-22T03:25:50;97292.22;;;3.18;59.67
76594;BME280;65482;50.240;14.302;2023-12-22T03:28:16;97290.75;;;3.16;59.64
76594;BME280;65482;50.240;14.302;2023-12-22T03:30:42;97281.97;;;3.17;59.10
76594;BME280;65482;50.240;14.302;2023-12-22T03:33:07;97289.25;;;3.22;59.56
76594;BME280;65482;50.240;14.302;2023-12-22T03:35:34;97284.41;;;3.18;59.42
76594;BME280;65482;50.240;14.302;2023-12-22T03:37:59;97282.28;;;3.14;59.93
76594;BME280;65482;50.240;14.302;2023-12-22T03:40:26;97281.81;;;3.10;59.85
76594;BME280;65482;50.240;14.302;2023-12-22T03:42:51;97288.00;;;3.09;59.15
76594;BME280;65482;50.240;14.302;2023-12-22T03:45:17;97299.22;;;3.10;59.35
76594;BME280;65482;50.240;14.302;2023-12-22T03:47:42;97301.34;;;3.14;59.25
76594;BME280;65482;50.240;14.302;2023-12-22T03:50:08;97314.00;;;3.26;59.54
76594;BME280;65482;50.240;14.302;2023-12-22T03:52:34;97304.81;;;3.46;58.43
76594;BME280;65482;50.240;14.302;2023-12-22T03:54:59;97297.22;;;3.68;58.75
76594;BME280;65482;50.240;14.302;2023-12-22T03:57:25;97295.66;;;3.82;58.36
76594;BME280;65482;50.240;14.302;2023-12-22T03:59:50;97276.56;;;3.89;58.07
76594;BME280;65482;50.240;14.302;2023-12-22T04:02:16;97266.59;;;3.93;57.87
76594;BME280;65482;50.240;14.302;2023-12-22T04:04:41;97266.81;;;3.83;57.63
76594;BME280;65482;50.240;14.302;2023-12-22T04:07:07;97272.09;;;3.75;58.65
76594;BME280;65482;50.240;14.302;2023-12-22T04:09:32;97285.22;;;3.58;58.51
76594;BME280;65482;50.240;14.302;2023-12-22T04:11:59;97288.94;;;3.56;58.93
76594;BME280;65482;50.240;14.302;2023-12-22T04:14:24;97283.28;;;3.52;59.07
76594;BME280;65482;50.240;14.302;2023-12-22T04:16:50;97270.53;;;3.57;58.49
76594;BME280;65482;50.240;14.302;2023-12-22T04:19:18;97264.84;;;3.54;58.23
76594;BME280;65482;50.240;14.302;2023-12-22T04:21:43;97270.09;;;3.46;58.52
76594;BME280;65482;50.240;14.302;2023-12-22T04:24:09;97282.84;;;3.41;58.74
76594;BME280;65482;50.240;14.302;2023-12-22T04:26:35;97278.47;;;3.33;58.97
76594;BME280;65482;50.240;14.302;2023-12-22T04:29:01;97271.50;;;3.25;59.10
76594;BME280;65482;50.240;14.302;2023-12-22T04:31:26;97266.97;;;3.19;59.84
76594;BME280;65482;50.240;14.302;2023-12-22T04:33:52;97271.53;;;3.17;59.73
76594;BME280;65482;50.240;14.302;2023-12-22T04:36:17;97276.41;;;3.20;59.88
76594;BME280;65482;50.240;14.302;2023-12-22T04:38:43;97268.59;;;3.20;60.21
76594;BME280;65482;50.240;14.302;2023-12-22T04:41:08;97271.34;;;3.27;59.96
76594;BME280;65482;50.240;14.302;2023-12-22T04:43:34;97266.78;;;3.29;60.69
76594;BME280;65482;50.240;14.302;2023-12-22T04:46:00;97274.13;;;3.25;60.50
76594;BME280;65482;50.240;14.302;2023-12-22T04:48:26;97276.72;;;3.25;60.73
76594;BME280;65482;50.240;14.302;2023-12-22T04:50:51;97284.41;;;3.18;60.43
76594;BME280;65482;50.240;14.302;2023-12-22T04:53:17;97289.44;;;3.20;61.00
76594;BME280;65482;50.240;14.302;2023-12-22T04:55:42;97277.03;;;3.30;60.34
76594;BME280;65482;50.240;14.302;2023-12-22T04:58:08;97286.91;;;3.43;59.79
76594;BME280;65482;50.240;14.302;2023-12-22T05:00:33;97294.81;;;3.58;59.49
76594;BME280;65482;50.240;14.302;2023-12-22T05:02:59;97288.25;;;3.70;59.58
76594;BME280;65482;50.240;14.302;2023-12-22T05:05:24;97294.69;;;3.83;58.75
76594;BME280;65482;50.240;14.302;2023-12-22T05:07:50;97302.47;;;3.91;58.40
76594;BME280;65482;50.240;14.302;2023-12-22T05:10:16;97307.47;;;4.01;58.67
76594;BME280;65482;50.240;14.302;2023-12-22T05:12:41;97323.41;;;4.06;59.76
76594;BME280;65482;50.240;14.302;2023-12-22T05:15:07;97312.03;;;3.98;63.81
76594;BME280;65482;50.240;14.302;2023-12-22T05:17:32;97332.53;;;3.78;65.72
76594;BME280;65482;50.240;14.302;2023-12-22T05:19:58;97336.50;;;3.58;67.81
76594;BME280;65482;50.240;14.302;2023-12-22T05:22:23;97346.66;;;3.53;68.19
76594;BME280;65482;50.240;14.302;2023-12-22T05:24:49;97333.66;;;3.45;68.83
76594;BME280;65482;50.240;14.302;2023-12-22T05:27:15;97346.22;;;3.41;69.12
76594;BME280;65482;50.240;14.302;2023-12-22T05:29:40;97337.75;;;3.39;69.52
76594;BME280;65482;50.240;14.302;2023-12-22T05:32:06;97328.47;;;3.36;70.11
76594;BME280;65482;50.240;14.302;2023-12-22T05:34:31;97324.22;;;3.35;69.87
76594;BME280;65482;50.240;14.302;2023-12-22T05:36:57;97329.31;;;3.29;69.97
76594;BME280;65482;50.240;14.302;2023-12-22T05:39:23;97338.94;;;3.28;70.12
76594;BME280;65482;50.240;14.302;2023-12-22T05:41:48;97355.53;;;3.27;70.30
76594;BME280;65482;50.240;14.302;2023-12-22T05:44:14;97321.13;;;3.32;69.99
76594;BME280;65482;50.240;14.302;2023-12-22T05:46:39;97357.66;;;3.24;70.88
76594;BME280;65482;50.240;14.302;2023-12-22T05:49:05;97345.94;;;3.19;70.99
76594;BME280;65482;50.240;14.302;2023-12-22T05:51:38;97343.69;;;3.16;70.72
76594;BME280;65482;50.240;14.302;2023-12-22T05:54:05;97358.66;;;3.23;70.94
76594;BME280;65482;50.240;14.302;2023-12-22T05:56:31;97354.88;;;3.25;71.25
76594;BME280;65482;50.240;14.302;2023-12-22T05:58:57;97347.22;;;3.24;70.89
76594;BME280;65482;50.240;14.302;2023-12-22T06:01:23;97363.53;;;3.17;69.66
76594;BME280;65482;50.240;14.302;2023-12-22T06:03:49;97336.66;;;3.25;68.82
76594;BME280;65482;50.240;14.302;2023-12-22T06:06:14;97329.97;;;3.23;68.31
76594;BME280;65482;50.240;14.302;2023-12-22T06:08:40;97347.72;;;3.27;67.40
76594;BME280;65482;50.240;14.302;2023-12-22T06:11:05;97360.41;;;3.22;67.08
76594;BME280;65482;50.240;14.302;2023-12-22T06:13:31;97375.91;;;3.15;67.32
76594;BME280;65482;50.240;14.302;2023-12-22T06:15:57;97377.38;;;3.10;67.64
76594;BME280;65482;50.240;14.302;2023-12-22T06:18:22;97366.81;;;3.03;67.40
76594;BME280;65482;50.240;14.302;2023-12-22T06:20:48;97363.72;;;2.91;68.16
76594;BME280;65482;50.240;14.302;2023-12-22T06:23:14;97361.31;;;2.82;68.16
76594;BME280;65482;50.240;14.302;2023-12-22T06:25:39;97358.69;;;2.73;68.08
76594;BME280;65482;50.240;14.302;2023-12-22T06:28:05;97357.91;;;2.73;68.07
76594;BME280;65482;50.240;14.302;2023-12-22T06:30:30;97367.31;;;2.66;68.09
76594;BME280;65482;50.240;14.302;2023-12-22T06:32:56;97352.50;;;2.58;68.73
76594;BME280;65482;50.240;14.302;2023-12-22T06:35:36;97351.72;;;2.57;69.10
76594;BME280;65482;50.240;14.302;2023-12-22T06:38:03;97360.31;;;2.50;68.54
76594;BME280;65482;50.240;14.302;2023-12-22T06:40:30;97361.13;;;2.50;68.91
76594;BME280;65482;50.240;14.302;2023-12-22T06:42:56;97358.38;;;2.52;68.62
76594;BME280;65482;50.240;14.302;2023-12-22T06:45:21;97370.09;;;2.56;68.67
76594;BME280;65482;50.240;14.302;2023-12-22T06:47:47;97373.84;;;2.62;68.72
76594;BME280;65482;50.240;14.302;2023-12-22T06:50:13;97376.44;;;2.70;69.22
76594;BME280;65482;50.240;14.302;2023-12-22T06:52:38;97373.81;;;2.78;69.20
76594;BME280;65482;50.240;14.302;2023-12-22T06:55:05;97386.53;;;2.81;68.95
76594;BME280;65482;50.240;14.302;2023-12-22T06:57:30;97377.56;;;2.92;69.11
76594;BME280;65482;50.240;14.302;2023-12-22T06:59:56;97394.16;;;2.99;68.26
76594;BME280;65482;50.240;14.302;2023-12-22T07:02:22;97383.41;;;3.02;67.89
76594;BME280;65482;50.240;14.302;2023-12-22T07:05:29;97385.03;;;3.11;66.52
76594;BME280;65482;50.240;14.302;2023-12-22T07:07:49;97381.28;;;3.06;66.74
76594;BME280;65482;50.240;14.302;2023-12-22T07:10:16;97387.97;;;3.00;67.09
76594;BME280;65482;50.240;14.302;2023-12-22T07:12:41;97404.91;;;2.96;67.02
76594;BME280;65482;50.240;14.302;2023-12-22T07:15:07;97400.19;;;2.91;66.65
76594;BME280;65482;50.240;14.302;2023-12-22T07:17:34;97393.53;;;2.89;66.49
76594;BME280;65482;50.240;14.302;2023-12-22T07:19:59;97397.25;;;2.94;66.36
76594;BME280;65482;50.240;14.302;2023-12-22T07:22:28;97400.50;;;3.05;66.28
76594;BME280;65482;50.240;14.302;2023-12-22T07:24:53;97390.41;;;3.10;65.20
76594;BME280;65482;50.240;14.302;2023-12-22T07:27:21;97390.88;;;3.22;64.96
76594;BME280;65482;50.240;14.302;2023-12-22T07:29:46;97394.44;;;3.29;64.63
76594;BME280;65482;50.240;14.302;2023-12-22T07:32:12;97394.72;;;3.42;64.38
76594;BME280;65482;50.240;14.302;2023-12-22T07:34:38;97401.56;;;3.51;63.61
76594;BME280;65482;50.240;14.302;2023-12-22T07:37:03;97396.19;;;3.53;63.41
76594;BME280;65482;50.240;14.302;2023-12-22T07:39:30;97396.66;;;3.56;63.23
76594;BME280;65482;50.240;14.302;2023-12-22T07:41:55;97391.41;;;3.65;62.50
76594;BME280;65482;50.240;14.302;2023-12-22T07:44:21;97406.38;;;3.71;62.16
76594;BME280;65482;50.240;14.302;2023-12-22T07:46:58;97400.34;;;3.78;61.17
76594;BME280;65482;50.240;14.302;2023-12-22T07:49:24;97395.03;;;3.95;60.44
76594;BME280;65482;50.240;14.302;2023-12-22T07:51:55;97401.66;;;4.06;60.42
76594;BME280;65482;50.240;14.302;2023-12-22T07:54:21;97393.50;;;4.09;59.89
76594;BME280;65482;50.240;14.302;2023-12-22T07:56:46;97398.09;;;4.07;59.36
76594;BME280;65482;50.240;14.302;2023-12-22T07:59:12;97392.50;;;4.10;59.99
76594;BME280;65482;50.240;14.302;2023-12-22T08:01:38;97392.50;;;4.10;58.87
76594;BME280;65482;50.240;14.302;2023-12-22T08:04:03;97393.97;;;4.12;59.02
76594;BME280;65482;50.240;14.302;2023-12-22T08:06:30;97412.25;;;4.12;58.76
76594;BME280;65482;50.240;14.302;2023-12-22T08:08:55;97415.66;;;4.13;58.25
76594;BME280;65482;50.240;14.302;2023-12-22T08:11:21;97412.94;;;4.06;58.80
76594;BME280;65482;50.240;14.302;2023-12-22T08:13:49;97410.13;;;4.08;59.00
76594;BME280;65482;50.240;14.302;2023-12-22T08:16:15;97407.31;;;4.17;58.64
76594;BME280;65482;50.240;14.302;2023-12-22T08:18:41;97407.94;;;4.28;58.87
76594;BME280;65482;50.240;14.302;2023-12-22T08:21:07;97416.41;;;4.30;58.87
76594;BME280;65482;50.240;14.302;2023-12-22T08:23:32;97435.31;;;4.24;58.87
76594;BME280;65482;50.240;14.302;2023-12-22T08:25:58;97447.41;;;4.25;58.48
76594;BME280;65482;50.240;14.302;2023-12-22T08:28:24;97461.22;;;4.33;58.81
76594;BME280;65482;50.240;14.302;2023-12-22T08:30:57;97469.38;;;4.38;59.76
76594;BME280;65482;50.240;14.302;2023-12-22T08:33:27;97464.88;;;4.24;62.78
76594;BME280;65482;50.240;14.302;2023-12-22T08:35:54;97465.19;;;4.21;64.90
76594;BME280;65482;50.240;14.302;2023-12-22T08:38:31;97459.53;;;4.09;65.78
76594;BME280;65482;50.240;14.302;2023-12-22T08:42:12;97472.00;;;3.91;67.27
76594;BME280;65482;50.240;14.302;2023-12-22T08:44:47;97490.97;;;3.68;68.55
76594;BME280;65482;50.240;14.302;2023-12-22T08:47:22;97493.44;;;3.53;69.32
76594;BME280;65482;50.240;14.302;2023-12-22T08:52:40;97520.03;;;3.41;70.08
76594;BME280;65482;50.240;14.302;2023-12-22T08:55:12;97503.75;;;3.30;70.82
76594;BME280;65482;50.240;14.302;2023-12-22T08:57:47;97506.81;;;3.17;70.28
76594;BME280;65482;50.240;14.302;2023-12-22T09:00:17;97511.03;;;3.10;70.78
76594;BME280;65482;50.240;14.302;2023-12-22T09:02:51;97506.81;;;3.01;70.82
76594;BME280;65482;50.240;14.302;2023-12-22T09:05:24;97490.38;;;3.09;70.87
76594;BME280;65482;50.240;14.302;2023-12-22T09:07:50;97489.06;;;3.13;70.99
76594;BME280;65482;50.240;14.302;2023-12-22T09:10:16;97495.25;;;3.20;71.06
76594;BME280;65482;50.240;14.302;2023-12-22T09:12:42;97498.69;;;3.29;71.61
76594;BME280;65482;50.240;14.302;2023-12-22T09:15:08;97499.00;;;3.50;70.70
76594;BME280;65482;50.240;14.302;2023-12-22T09:17:33;97506.47;;;3.62;70.81
76594;BME280;65482;50.240;14.302;2023-12-22T09:20:01;97502.19;;;3.77;70.12
76594;BME280;65482;50.240;14.302;2023-12-22T09:22:26;97501.22;;;3.86;70.48
76594;BME280;65482;50.240;14.302;2023-12-22T09:24:54;97503.59;;;4.04;69.69
76594;BME280;65482;50.240;14.302;2023-12-22T09:27:20;97501.91;;;4.19;69.71
76594;BME280;65482;50.240;14.302;2023-12-22T09:29:48;97501.84;;;4.36;69.25
76594;BME280;65482;50.240;14.302;2023-12-22T09:32:13;97502.72;;;4.51;67.68
76594;BME280;65482;50.240;14.302;2023-12-22T09:34:40;97499.91;;;4.61;67.48
76594;BME280;65482;50.240;14.302;2023-12-22T09:37:06;97496.28;;;4.70;66.44
76594;BME280;65482;50.240;14.302;2023-12-22T09:39:31;97495.00;;;4.66;65.74
76594;BME280;65482;50.240;14.302;2023-12-22T09:41:57;97500.91;;;4.83;65.08
76594;BME280;65482;50.240;14.302;2023-12-22T09:44:24;97493.00;;;5.00;63.93
76594;BME280;65482;50.240;14.302;2023-12-22T09:46:50;97495.94;;;4.96;63.75
76594;BME280;65482;50.240;14.302;2023-12-22T09:49:18;97490.13;;;4.86;64.12
76594;BME280;65482;50.240;14.302;2023-12-22T09:51:45;97492.69;;;4.94;62.84
76594;BME280;65482;50.240;14.302;2023-12-22T09:54:13;97502.13;;;5.04;63.09
76594;BME280;65482;50.240;14.302;2023-12-22T09:56:40;97510.81;;;4.96;63.90
76594;BME280;65482;50.240;14.302;2023-12-22T09:59:11;97506.22;;;4.98;63.82
76594;BME280;65482;50.240;14.302;2023-12-22T10:01:45;97503.94;;;4.95;64.48
76594;BME280;65482;50.240;14.302;2023-12-22T10:04:14;97501.97;;;4.74;65.39
76594;BME280;65482;50.240;14.302;2023-12-22T10:06:41;97513.31;;;4.58;66.13
76594;BME280;65482;50.240;14.302;2023-12-22T10:09:07;97511.81;;;4.32;67.08
76594;BME280;65482;50.240;14.302;2023-12-22T10:11:35;97525.22;;;4.21;67.15
76594;BME280;65482;50.240;14.302;2023-12-22T10:14:06;97545.00;;;4.07;65.81
76594;BME280;65482;50.240;14.302;2023-12-22T10:16:32;97546.34;;;3.87;66.53
76594;BME280;65482;50.240;14.302;2023-12-22T10:18:59;97547.34;;;3.77;66.68
76594;BME280;65482;50.240;14.302;2023-12-22T10:21:25;97564.47;;;3.64;66.59
76594;BME280;65482;50.240;14.302;2023-12-22T10:23:51;97565.63;;;3.45;67.69
76594;BME280;65482;50.240;14.302;2023-12-22T10:26:17;97571.66;;;3.45;68.34
76594;BME280;65482;50.240;14.302;2023-12-22T10:28:43;97575.41;;;3.34;69.22
76594;BME280;65482;50.240;14.302;2023-12-22T10:31:09;97570.00;;;3.19;69.23
76594;BME280;65482;50.240;14.302;2023-12-22T10:33:34;97577.31;;;3.08;69.78
76594;BME280;65482;50.240;14.302;2023-12-22T10:36:00;97580.91;;;3.15;70.80
76594;BME280;65482;50.240;14.302;2023-12-22T10:38:32;97589.53;;;3.07;69.88
76594;BME280;65482;50.240;14.302;2023-12-22T10:40:58;97589.69;;;3.14;70.40
76594;BME280;65482;50.240;14.302;2023-12-22T10:43:23;97598.66;;;3.28;69.99
76594;BME280;65482;50.240;14.302;2023-12-22T10:45:52;97602.91;;;3.29;70.01
76594;BME280;65482;50.240;14.302;2023-12-22T10:48:17;97604.03;;;3.26;69.37
76594;BME280;65482;50.240;14.302;2023-12-22T10:50:43;97609.09;;;3.28;69.14
76594;BME280;65482;50.240;14.302;2023-12-22T10:53:11;97616.44;;;3.32;69.70
76594;BME280;65482;50.240;14.302;2023-12-22T10:55:36;97626.81;;;3.24;69.76
76594;BME280;65482;50.240;14.302;2023-12-22T10:58:03;97629.75;;;3.13;70.39
76594;BME280;65482;50.240;14.302;2023-12-22T11:00:31;97625.28;;;2.89;71.09
76594;BME280;65482;50.240;14.302;2023-12-22T11:03:01;97634.16;;;2.70;71.51
76594;BME280;65482;50.240;14.302;2023-12-22T11:05:29;97609.91;;;2.69;71.99
76594;BME280;65482;50.240;14.302;2023-12-22T11:08:00;97624.72;;;2.69;72.22
76594;BME280;65482;50.240;14.302;2023-12-22T11:10:27;97619.00;;;2.57;72.21
76594;BME280;65482;50.240;14.302;2023-12-22T11:12:57;97618.63;;;2.52;72.51
76594;BME280;65482;50.240;14.302;2023-12-22T11:15:24;97618.59;;;2.44;72.03
76594;BME280;65482;50.240;14.302;2023-12-22T11:17:51;97618.19;;;2.30;72.58
76594;BME280;65482;50.240;14.302;2023-12-22T11:20:17;97629.88;;;2.26;72.69
76594;BME280;65482;50.240;14.302;2023-12-22T11:22:44;97616.53;;;2.21;72.66
76594;BME280;65482;50.240;14.302;2023-12-22T11:25:10;97612.28;;;2.20;72.80
76594;BME280;65482;50.240;14.302;2023-12-22T11:27:37;97634.38;;;2.16;72.53
76594;BME280;65482;50.240;14.302;2023-12-22T11:30:04;97623.16;;;2.15;73.19
76594;BME280;65482;50.240;14.302;2023-12-22T11:32:33;97608.00;;;2.11;73.25
76594;BME280;65482;50.240;14.302;2023-12-22T11:35:00;97613.53;;;2.08;73.64
76594;BME280;65482;50.240;14.302;2023-12-22T11:37:25;97610.50;;;2.21;73.31
76594;BME280;65482;50.240;14.302;2023-12-22T11:39:51;97603.25;;;2.32;72.96
76594;BME280;65482;50.240;14.302;2023-12-22T11:42:28;97596.28;;;2.33;73.20
76594;BME280;65482;50.240;14.302;2023-12-22T11:44:57;97587.13;;;2.29;73.95
76594;BME280;65482;50.240;14.302;2023-12-22T11:47:24;97581.53;;;2.15;74.26
76594;BME280;65482;50.240;14.302;2023-12-22T11:49:49;97571.44;;;2.12;74.33
76594;BME280;65482;50.240;14.302;2023-12-22T11:52:25;97569.16;;;2.09;74.66
76594;BME280;65482;50.240;14.302;2023-12-22T11:54:52;97566.09;;;2.14;75.05
76594;BME280;65482;50.240;14.302;2023-12-22T11:57:37;97564.31;;;2.23;74.73
76594;BME280;65482;50.240;14.302;2023-12-22T12:00:07;97550.28;;;2.42;74.35
76594;BME280;65482;50.240;14.302;2023-12-22T12:02:37;97540.06;;;2.56;74.38
76594;BME280;65482;50.240;14.302;2023-12-22T12:05:07;97528.25;;;2.78;73.85
76594;BME280;65482;50.240;14.302;2023-12-22T12:07:46;97524.38;;;2.91;73.70
76594;BME280;65482;50.240;14.302;2023-12-22T12:13:11;97508.28;;;3.04;72.98
76594;BME280;65482;50.240;14.302;2023-12-22T12:15:37;97502.91;;;3.05;73.31
76594;BME280;65482;50.240;14.302;2023-12-22T12:18:03;97497.53;;;2.98;72.92
76594;BME280;65482;50.240;14.302;2023-12-22T12:20:30;97498.34;;;2.99;73.33
76594;BME280;65482;50.240;14.302;2023-12-22T12:22:55;97499.81;;;3.02;73.65
76594;BME280;65482;50.240;14.302;2023-12-22T12:25:22;97481.56;;;3.02;73.71
76594;BME280;65482;50.240;14.302;2023-12-22T12:28:00;97483.38;;;3.01;74.08
76594;BME280;65482;50.240;14.302;2023-12-22T12:30:27;97473.25;;;2.98;74.18
76594;BME280;65482;50.240;14.302;2023-12-22T12:32:52;97465.63;;;3.05;73.44
76594;BME280;65482;50.240;14.302;2023-12-22T12:35:19;97471.97;;;3.10;72.93
76594;BME280;65482;50.240;14.302;2023-12-22T12:37:45;97466.59;;;3.20;72.65
76594;BME280;65482;50.240;14.302;2023-12-22T12:40:14;97473.09;;;3.24;71.47
76594;BME280;65482;50.240;14.302;2023-12-22T12:42:42;97459.59;;;3.29;71.57
76594;BME280;65482;50.240;14.302;2023-12-22T12:45:08;97454.03;;;3.32;70.52
76594;BME280;65482;50.240;14.302;2023-12-22T12:47:33;97456.16;;;3.36;69.76
76594;BME280;65482;50.240;14.302;2023-12-22T12:50:00;97460.38;;;3.46;68.37
76594;BME280;65482;50.240;14.302;2023-12-22T12:52:26;97461.84;;;3.56;69.09
76594;BME280;65482;50.240;14.302;2023-12-22T12:54:54;97462.78;;;3.64;68.27
76594;BME280;65482;50.240;14.302;2023-12-22T12:57:21;97466.03;;;3.66;67.46
76594;BME280;65482;50.240;14.302;2023-12-22T12:59:48;97456.09;;;3.69;67.71
76594;BME280;65482;50.240;14.302;2023-12-22T13:02:18;97451.00;;;3.84;67.38
76594;BME280;65482;50.240;14.302;2023-12-22T13:04:44;97445.78;;;3.84;67.08